Time;durP1;ratioP1;P1;durP2;ratioP2;P2;SDS_P1;SDS_P2;PMS_P1;PMS_P2;Temp;Humidity;BMP_temperature;BMP_pressure;BME280_temperature;BME280_humidity;BME280_pressure;Samples;Min_cycle;Max_cycle;Signal;HPM_P1;HPM_P2
2021/12/07 00:01:05;;;;;;;0.80;0.80;;;2.20;99.90;;;;;;5093687;28;20040;-76
2021/12/07 00:03:31;;;;;;;1.43;1.17;;;2.30;99.90;;;;;;5094639;28;20420;-76
2021/12/07 00:05:57;;;;;;;0.60;0.60;;;2.20;99.90;;;;;;5093371;28;20059;-78
2021/12/07 00:08:25;;;;;;;0.63;0.63;;;2.10;99.90;;;;;;5094799;28;20395;-77
2021/12/07 00:10:51;;;;;;;0.90;0.77;;;2.10;99.90;;;;;;5094000;28;20122;-74
2021/12/07 00:13:17;;;;;;;0.68;0.68;;;2.00;99.90;;;;;;5094527;28;20044;-78
2021/12/07 00:15:43;;;;;;;1.02;0.80;;;2.10;99.90;;;;;;5094571;28;20071;-75
2021/12/07 00:18:09;;;;;;;0.98;0.98;;;2.00;99.90;;;;;;5094413;28;20060;-76
2021/12/07 00:20:35;;;;;;;2.72;2.55;;;2.00;99.90;;;;;;5094412;28;20075;-75
2021/12/07 00:23:05;;;;;;;0.70;0.70;;;2.00;99.90;;;;;;5094682;28;20048;-78
2021/12/07 00:25:30;;;;;;;0.60;0.60;;;1.90;99.90;;;;;;5094302;28;20044;-76
2021/12/07 00:27:56;;;;;;;1.73;1.63;;;1.90;99.90;;;;;;5094258;28;20073;-76
2021/12/07 00:30:27;;;;;;;0.70;0.70;;;1.80;99.90;;;;;;5094054;28;20097;-74
2021/12/07 00:33:08;;;;;;;0.60;0.60;;;1.60;99.90;;;;;;5094158;28;20052;-73
2021/12/07 00:35:34;;;;;;;1.33;1.23;;;1.80;99.90;;;;;;5094231;28;20047;-76
2021/12/07 00:38:04;;;;;;;0.60;0.60;;;1.70;99.90;;;;;;5094131;28;20090;-78
2021/12/07 00:40:30;;;;;;;0.70;0.70;;;1.60;99.90;;;;;;5093993;28;20032;-77
2021/12/07 00:42:56;;;;;;;1.05;1.00;;;1.50;99.90;;;;;;5094066;28;20079;-77
2021/12/07 00:45:22;;;;;;;0.60;0.60;;;1.50;99.90;;;;;;5093881;28;20044;-75
2021/12/07 00:47:50;;;;;;;0.93;0.90;;;1.50;99.90;;;;;;5094044;28;20051;-77
2021/12/07 00:50:17;;;;;;;0.90;0.90;;;1.60;99.90;;;;;;5092800;28;20484;-76
2021/12/07 00:52:43;;;;;;;;;;;1.50;99.90;;;;;;5094294;28;20044;-76
2021/12/07 00:55:14;;;;;;;0.60;0.60;;;1.40;99.90;;;;;;5093858;28;20022;-78
2021/12/07 00:57:40;;;;;;;0.70;0.70;;;1.50;99.90;;;;;;5093891;28;20036;-75
2021/12/07 01:00:13;;;;;;;0.80;0.80;;;1.30;99.90;;;;;;5093733;28;20544;-78
2021/12/07 01:02:40;;;;;;;0.70;0.70;;;1.30;99.90;;;;;;5094266;28;20040;-74
2021/12/07 01:05:19;;;;;;;0.80;0.80;;;1.30;99.90;;;;;;5094267;28;20476;-77
2021/12/07 01:24:40;;;;;;;0.65;0.65;;;1.00;99.90;;;;;;5094148;28;20087;-77
2021/12/07 01:26:54;;;;;;;0.70;0.70;;;1.20;99.90;;;;;;5093617;28;20088;-75
2021/12/07 01:29:23;;;;;;;3.28;3.08;;;1.20;99.90;;;;;;5093497;28;20041;-77
2021/12/07 01:32:09;;;;;;;0.88;0.70;;;1.10;99.90;;;;;;5093542;28;20052;-79
2021/12/07 01:35:51;;;;;;;0.60;0.60;;;1.00;99.90;;;;;;5093854;28;20040;-74
2021/12/07 01:37:42;;;;;;;2.38;2.17;;;1.00;99.90;;;;;;5075434;28;20056;-74
2021/12/07 01:43:27;;;;;;;0.70;0.70;;;1.00;99.90;;;;;;5093423;28;20051;-74
2021/12/07 01:46:10;;;;;;;0.70;0.70;;;1.00;99.90;;;;;;5093121;28;20200;-75
2021/12/07 01:51:41;;;;;;;0.77;0.77;;;1.00;99.90;;;;;;5093438;28;20503;-78
2021/12/07 01:59:35;;;;;;;0.70;0.70;;;1.20;99.90;;;;;;5093544;28;20483;-79
2021/12/07 02:02:04;;;;;;;0.88;0.88;;;1.00;99.90;;;;;;5096668;28;20048;-78
2021/12/07 02:04:30;;;;;;;0.70;0.70;;;1.00;99.90;;;;;;5096865;28;20040;-75
2021/12/07 02:06:56;;;;;;;0.70;0.70;;;1.10;99.90;;;;;;5096629;28;20577;-77
2021/12/07 02:09:22;;;;;;;0.70;0.70;;;1.10;99.90;;;;;;5097287;28;20040;-77
2021/12/07 02:11:50;;;;;;;0.80;0.80;;;1.50;99.90;;;;;;5097129;28;20051;-77
2021/12/07 02:14:17;;;;;;;0.70;0.70;;;1.30;99.90;;;;;;5096760;28;20083;-75
2021/12/07 02:16:55;;;;;;;0.95;0.95;;;1.20;99.90;;;;;;5096889;28;20048;-76
2021/12/07 02:19:21;;;;;;;;;;;1.10;99.90;;;;;;5097152;28;20190;-76
2021/12/07 02:21:47;;;;;;;1.10;1.10;;;1.10;99.90;;;;;;5096624;28;19928;-77
2021/12/07 02:24:13;;;;;;;0.85;0.85;;;1.60;99.90;;;;;;5095428;28;20506;-74
2021/12/07 02:26:38;;;;;;;1.67;1.02;;;1.20;99.90;;;;;;5096848;28;20052;-74
2021/12/07 02:29:05;;;;;;;0.70;0.70;;;1.10;99.90;;;;;;5095533;28;20046;-78
2021/12/07 02:31:31;;;;;;;0.70;0.70;;;1.10;99.90;;;;;;5096492;28;20047;-76
2021/12/07 02:33:57;;;;;;;0.70;0.70;;;1.10;99.90;;;;;;5096562;28;20419;-76
2021/12/07 02:36:22;;;;;;;0.70;0.70;;;1.00;99.90;;;;;;5096340;28;20040;-78
2021/12/07 02:38:48;;;;;;;2.00;1.90;;;1.00;99.90;;;;;;5096260;28;20121;-75
2021/12/07 02:41:14;;;;;;;2.17;2.03;;;1.00;99.90;;;;;;5095070;28;20055;-77
2021/12/07 02:43:40;;;;;;;1.50;1.40;;;1.10;99.90;;;;;;5096251;28;20082;-78
2021/12/07 02:46:05;;;;;;;1.40;1.33;;;1.20;99.90;;;;;;5096159;28;20036;-74
2021/12/07 02:48:31;;;;;;;1.35;1.25;;;1.10;99.90;;;;;;5096074;28;20044;-78
2021/12/07 02:50:57;;;;;;;0.70;0.70;;;1.10;99.90;;;;;;5095743;28;20515;-75
2021/12/07 02:53:26;;;;;;;0.88;0.88;;;1.00;99.90;;;;;;5096199;28;20040;-74
2021/12/07 02:55:53;;;;;;;0.70;0.70;;;1.00;99.90;;;;;;5095961;28;20043;-76
2021/12/07 02:58:19;;;;;;;0.98;0.98;;;1.00;99.90;;;;;;5096227;28;20472;-76
2021/12/07 03:01:05;;;;;;;0.73;0.73;;;1.00;99.90;;;;;;5096071;28;20047;-77
2021/12/07 03:03:35;;;;;;;0.82;0.82;;;1.50;99.90;;;;;;5095807;28;20081;-74
2021/12/07 03:06:21;;;;;;;0.90;0.90;;;1.30;99.90;;;;;;5096155;28;20059;-78
2021/12/07 03:09:37;;;;;;;0.90;0.90;;;1.00;99.90;;;;;;5095801;28;20545;-75
2021/12/07 03:26:00;;;;;;;0.70;0.70;;;1.20;99.90;;;;;;5095610;28;20044;-77
2021/12/07 03:28:27;;;;;;;0.70;0.70;;;1.20;99.90;;;;;;5095334;28;20055;-77
2021/12/07 03:30:52;;;;;;;0.80;0.80;;;1.20;99.90;;;;;;5095284;28;20055;-74
2021/12/07 03:33:18;;;;;;;0.95;0.95;;;1.40;99.90;;;;;;5095525;28;20047;-76
2021/12/07 03:35:45;;;;;;;0.95;0.95;;;1.30;99.90;;;;;;5095208;28;20051;-76
2021/12/07 03:38:11;;;;;;;0.70;0.70;;;1.30;99.90;;;;;;5095318;28;20081;-75
2021/12/07 03:40:38;;;;;;;0.70;0.70;;;1.30;99.90;;;;;;5095098;28;20044;-75
2021/12/07 03:43:05;;;;;;;0.70;0.70;;;1.30;99.90;;;;;;5095024;28;20196;-76
2021/12/07 03:45:32;;;;;;;5.22;4.82;;;1.30;99.90;;;;;;5095003;28;20044;-75
2021/12/07 03:47:58;;;;;;;0.70;0.70;;;1.40;99.90;;;;;;5095332;28;20052;-77
2021/12/07 03:50:25;;;;;;;0.70;0.70;;;1.30;99.90;;;;;;5095200;28;20047;-78
2021/12/07 03:52:51;;;;;;;0.70;0.70;;;1.30;99.90;;;;;;5094645;28;20507;-74
2021/12/07 03:55:17;;;;;;;5.75;5.28;;;1.30;99.90;;;;;;5094889;28;20058;-78
2021/12/07 03:57:43;;;;;;;0.93;0.93;;;1.30;99.90;;;;;;5094615;28;20122;-75
2021/12/07 04:00:13;;;;;;;0.70;0.70;;;1.30;99.90;;;;;;5095101;28;20101;-73
2021/12/07 04:02:40;;;;;;;0.82;0.82;;;1.30;99.90;;;;;;5094666;28;20044;-75
2021/12/07 04:05:14;;;;;;;2.00;1.77;;;1.30;99.90;;;;;;5094678;28;20052;-77
2021/12/07 04:07:40;;;;;;;0.70;0.70;;;1.30;99.90;;;;;;5094875;28;20055;-77
2021/12/07 04:10:08;;;;;;;0.80;0.80;;;1.30;99.90;;;;;;5094604;28;20090;-75
2021/12/07 04:12:34;;;;;;;0.70;0.70;;;1.30;99.90;;;;;;5094505;28;20193;-76
2021/12/07 04:15:00;;;;;;;1.23;1.23;;;1.30;99.90;;;;;;5094937;28;20052;-77
2021/12/07 04:17:26;;;;;;;0.60;0.60;;;1.30;99.90;;;;;;5094694;28;20064;-78
2021/12/07 04:19:52;;;;;;;0.90;0.90;;;1.30;99.90;;;;;;5094395;28;20440;-74
2021/12/07 04:22:17;;;;;;;0.70;0.70;;;1.30;99.90;;;;;;5094384;28;20039;-78
2021/12/07 04:24:43;;;;;;;0.70;0.70;;;1.30;99.90;;;;;;5094154;28;20039;-77
2021/12/07 04:27:09;;;;;;;0.70;0.70;;;1.20;99.90;;;;;;5094252;28;20048;-78
2021/12/07 04:29:35;;;;;;;0.70;0.70;;;1.20;99.90;;;;;;5094243;28;20079;-75
2021/12/07 04:32:01;;;;;;;0.70;0.70;;;1.10;99.90;;;;;;5094271;28;20176;-78
2021/12/07 04:34:26;;;;;;;0.68;0.68;;;1.10;99.90;;;;;;5094115;28;20499;-79
2021/12/07 04:36:52;;;;;;;0.70;0.70;;;1.10;99.90;;;;;;5094202;28;20044;-76
2021/12/07 04:39:18;;;;;;;0.70;0.70;;;1.00;99.90;;;;;;5094035;28;20039;-76
2021/12/07 04:41:46;;;;;;;0.77;0.77;;;1.10;99.90;;;;;;5093985;28;20048;-75
2021/12/07 04:44:12;;;;;;;0.60;0.60;;;0.90;99.90;;;;;;5094022;28;20048;-74
2021/12/07 04:47:00;;;;;;;0.70;0.70;;;0.90;99.90;;;;;;5094318;28;20113;-76
2021/12/07 04:57:40;;;;;;;0.60;0.60;;;1.10;99.90;;;;;;5094110;28;20056;-78
2021/12/07 05:00:26;;;;;;;0.88;0.88;;;0.70;99.90;;;;;;5093893;28;20090;-76
2021/12/07 05:03:00;;;;;;;0.82;0.82;;;0.70;99.90;;;;;;5093825;28;20047;-76
2021/12/07 05:05:32;;;;;;;0.90;0.90;;;0.70;99.90;;;;;;5093503;28;20504;-75
2021/12/07 05:08:02;;;;;;;0.80;0.80;;;0.70;99.90;;;;;;5094102;28;20044;-74
2021/12/07 05:10:33;;;;;;;1.27;1.17;;;0.70;99.90;;;;;;5093710;28;20040;-76
2021/12/07 05:13:25;;;;;;;0.70;0.70;;;0.60;99.90;;;;;;5093601;28;20059;-75
2021/12/07 05:18:41;;;;;;;0.80;0.80;;;0.60;99.90;;;;;;5094033;28;20087;-76
2021/12/07 05:34:51;;;;;;;1.60;1.50;;;0.50;99.90;;;;;;5093942;28;20052;-74
2021/12/07 05:40:05;;;;;;;1.25;1.15;;;0.40;99.90;;;;;;5097486;28;20132;-78
2021/12/07 05:42:31;;;;;;;1.13;1.13;;;0.40;99.90;;;;;;5097244;28;20040;-78
2021/12/07 05:44:56;;;;;;;0.70;0.70;;;0.30;99.90;;;;;;5097650;28;20108;-78
2021/12/07 05:47:22;;;;;;;0.70;0.70;;;0.50;99.90;;;;;;5097307;28;20495;-77
2021/12/07 05:49:48;;;;;;;0.60;0.60;;;0.40;99.90;;;;;;5097548;28;20051;-75
2021/12/07 05:52:14;;;;;;;0.70;0.70;;;0.60;99.90;;;;;;5097237;28;20093;-78
2021/12/07 05:54:39;;;;;;;0.70;0.70;;;0.40;99.90;;;;;;5097279;28;20044;-75
2021/12/07 05:57:05;;;;;;;0.63;0.63;;;-0.40;99.90;;;;;;5097092;28;20388;-78
2021/12/07 05:59:31;;;;;;;0.70;0.70;;;0.40;99.90;;;;;;5097635;28;20039;-76
2021/12/07 06:01:57;;;;;;;0.60;0.60;;;0.40;99.90;;;;;;5096877;28;20054;-74
2021/12/07 06:04:22;;;;;;;1.77;1.58;;;0.40;99.90;;;;;;5097019;28;20048;-77
2021/12/07 06:06:48;;;;;;;0.70;0.70;;;0.40;99.90;;;;;;5097013;28;20052;-77
2021/12/07 06:09:13;;;;;;;0.60;0.60;;;0.30;99.90;;;;;;5096938;28;20458;-76
2021/12/07 06:11:40;;;;;;;0.70;0.70;;;0.30;99.90;;;;;;5096856;28;20442;-75
2021/12/07 06:14:05;;;;;;;0.70;0.70;;;0.30;99.90;;;;;;5096809;28;20438;-78
2021/12/07 06:16:32;;;;;;;0.70;0.70;;;0.30;99.90;;;;;;5096696;28;20055;-77
2021/12/07 06:18:58;;;;;;;0.70;0.70;;;0.30;99.90;;;;;;5096604;28;20044;-77
2021/12/07 06:21:25;;;;;;;0.80;0.80;;;0.90;99.90;;;;;;5096573;28;20488;-74
2021/12/07 06:23:52;;;;;;;0.82;0.82;;;0.30;99.90;;;;;;5096630;28;20097;-78
2021/12/07 06:26:18;;;;;;;0.60;0.60;;;0.30;99.90;;;;;;5096478;28;20051;-75
2021/12/07 06:28:43;;;;;;;0.70;0.70;;;0.30;99.90;;;;;;5096570;28;20040;-77
2021/12/07 06:31:09;;;;;;;0.82;0.82;;;0.30;99.90;;;;;;5096519;28;20052;-76
2021/12/07 06:33:34;;;;;;;0.70;0.70;;;0.30;99.90;;;;;;5096402;28;20040;-73
2021/12/07 06:36:03;;;;;;;0.70;0.70;;;0.40;99.90;;;;;;5096386;28;20044;-78
2021/12/07 06:38:30;;;;;;;1.15;1.05;;;0.40;99.90;;;;;;5096342;28;20058;-78
2021/12/07 06:40:57;;;;;;;0.80;0.80;;;0.40;99.90;;;;;;5096196;28;20040;-77
2021/12/07 06:43:23;;;;;;;0.60;0.60;;;0.50;99.90;;;;;;5095974;28;20488;-75
2021/12/07 06:45:49;;;;;;;0.60;0.60;;;0.50;99.90;;;;;;5096045;28;20051;-76
2021/12/07 06:48:15;;;;;;;1.10;1.00;;;0.60;99.90;;;;;;5095203;28;20048;-77
2021/12/07 06:50:40;;;;;;;0.60;0.60;;;0.60;99.90;;;;;;5096190;28;20070;-74
2021/12/07 06:53:06;;;;;;;0.60;0.60;;;0.60;99.90;;;;;;5096028;28;20554;-76
2021/12/07 06:55:32;;;;;;;2.28;2.15;;;0.70;99.90;;;;;;5095886;28;20048;-75
2021/12/07 06:57:58;;;;;;;0.60;0.60;;;0.70;99.90;;;;;;5095937;28;20080;-77
2021/12/07 07:00:24;;;;;;;0.70;0.70;;;0.80;99.90;;;;;;5096097;28;20036;-76
2021/12/07 07:02:49;;;;;;;0.80;0.80;;;0.80;99.90;;;;;;5095752;28;20046;-74
2021/12/07 07:05:17;;;;;;;0.70;0.70;;;0.80;99.90;;;;;;5095994;28;20064;-76
2021/12/07 07:07:43;;;;;;;0.70;0.70;;;0.80;99.90;;;;;;5095733;28;20119;-76
2021/12/07 07:10:14;;;;;;;0.70;0.70;;;0.70;99.90;;;;;;5095611;28;20063;-77
2021/12/07 07:12:41;;;;;;;0.70;0.70;;;0.70;99.90;;;;;;5095656;28;20054;-77
2021/12/07 07:15:07;;;;;;;0.75;0.75;;;0.70;99.90;;;;;;5095149;28;20108;-76
2021/12/07 07:17:33;;;;;;;0.80;0.80;;;0.60;99.90;;;;;;5095715;28;20056;-77
2021/12/07 07:19:59;;;;;;;0.60;0.60;;;0.60;99.90;;;;;;5095583;28;20036;-75
2021/12/07 07:22:24;;;;;;;1.10;1.02;;;0.50;99.90;;;;;;5094912;28;20175;-75
2021/12/07 07:24:50;;;;;;;6.03;1.85;;;0.50;99.90;;;;;;5095231;28;20079;-76
2021/12/07 07:27:16;;;;;;;1.37;1.27;;;0.50;99.90;;;;;;5095307;28;20460;-77
2021/12/07 07:29:42;;;;;;;0.80;0.80;;;0.50;99.90;;;;;;5095310;28;20040;-76
2021/12/07 07:32:08;;;;;;;1.55;1.45;;;0.50;99.90;;;;;;5095261;28;20047;-75
2021/12/07 07:34:34;;;;;;;2.55;2.35;;;0.50;99.90;;;;;;5095290;28;20384;-77
2021/12/07 07:36:59;;;;;;;0.70;0.70;;;0.50;99.90;;;;;;5095190;28;20114;-75
2021/12/07 07:39:25;;;;;;;0.70;0.70;;;0.60;99.90;;;;;;5095055;28;20503;-76
2021/12/07 07:41:51;;;;;;;0.70;0.70;;;0.50;99.90;;;;;;5095132;28;20119;-78
2021/12/07 07:44:17;;;;;;;0.80;0.80;;;0.50;99.90;;;;;;5095070;28;20050;-76
2021/12/07 07:46:42;;;;;;;0.70;0.70;;;0.50;99.90;;;;;;5095084;28;20472;-76
2021/12/07 07:49:08;;;;;;;0.80;0.80;;;0.60;99.90;;;;;;5095214;28;20450;-77
2021/12/07 07:51:34;;;;;;;0.70;0.70;;;0.50;99.90;;;;;;5095004;28;20495;-75
2021/12/07 07:54:00;;;;;;;0.60;0.60;;;0.80;99.90;;;;;;5095148;28;20048;-75
2021/12/07 07:56:28;;;;;;;0.70;0.70;;;0.50;99.90;;;;;;5094858;28;20051;-75
2021/12/07 07:58:55;;;;;;;0.90;0.90;;;0.60;99.90;;;;;;5094669;28;20036;-76
2021/12/07 08:01:23;;;;;;;0.70;0.70;;;0.60;99.90;;;;;;5094664;28;20104;-76
2021/12/07 08:03:52;;;;;;;0.70;0.70;;;0.70;99.90;;;;;;5094640;28;20048;-76
2021/12/07 08:06:18;;;;;;;0.70;0.70;;;0.70;99.90;;;;;;5094764;28;20044;-76
2021/12/07 08:08:43;;;;;;;1.02;1.02;;;0.80;99.90;;;;;;5094627;28;20456;-77
2021/12/07 08:11:09;;;;;;;1.27;1.17;;;0.90;99.90;;;;;;5095273;28;20089;-76
2021/12/07 08:13:35;;;;;;;0.60;0.60;;;0.90;99.90;;;;;;5094530;28;20051;-76
2021/12/07 08:16:00;;;;;;;0.70;0.70;;;1.00;99.90;;;;;;5094660;28;20109;-76
2021/12/07 08:18:26;;;;;;;0.60;0.60;;;1.00;99.90;;;;;;5094588;28;20044;-75
2021/12/07 08:20:52;;;;;;;0.70;0.70;;;1.00;99.90;;;;;;5094424;28;20040;-75
2021/12/07 08:23:18;;;;;;;0.80;0.80;;;1.00;99.90;;;;;;5094410;28;20036;-79
2021/12/07 08:25:46;;;;;;;0.60;0.60;;;1.00;99.90;;;;;;5094456;28;20048;-78
2021/12/07 08:28:14;;;;;;;0.70;0.70;;;1.00;99.90;;;;;;5094311;28;20048;-79
2021/12/07 08:30:41;;;;;;;1.40;1.30;;;1.00;99.90;;;;;;5095154;28;20032;-77
2021/12/07 08:33:08;;;;;;;0.70;0.70;;;1.00;99.90;;;;;;5094510;28;20040;-77
2021/12/07 08:35:34;;;;;;;0.60;0.60;;;1.20;99.90;;;;;;5093974;28;20054;-76
2021/12/07 08:38:00;;;;;;;0.70;0.70;;;1.00;99.90;;;;;;5093783;28;20046;-78
2021/12/07 08:40:29;;;;;;;0.70;0.70;;;1.00;99.90;;;;;;5093998;28;20040;-77
2021/12/07 08:42:55;;;;;;;1.15;1.05;;;1.10;99.90;;;;;;5094115;28;20040;-76
2021/12/07 08:45:22;;;;;;;0.70;0.70;;;1.00;99.90;;;;;;5094137;28;20438;-77
2021/12/07 08:47:48;;;;;;;0.60;0.60;;;1.10;99.90;;;;;;5093963;28;20093;-80
2021/12/07 08:50:18;;;;;;;0.70;0.70;;;1.10;99.90;;;;;;5094042;28;20036;-76
2021/12/07 08:52:46;;;;;;;1.42;1.23;;;1.10;99.90;;;;;;5093870;28;20290;-78
2021/12/07 09:00:27;;;;;;;0.60;0.60;;;1.20;99.90;;;;;;5093790;28;20435;-78
2021/12/07 09:02:53;;;;;;;0.63;0.63;;;1.30;99.90;;;;;;5093893;28;20048;-74
2021/12/07 09:05:19;;;;;;;1.00;1.00;;;1.30;99.90;;;;;;5093838;28;20044;-77
2021/12/07 09:07:46;;;;;;;2.60;2.50;;;1.40;99.90;;;;;;5094147;28;20062;-75
2021/12/07 09:10:11;;;;;;;;;;;1.40;99.90;;;;;;5094890;28;20070;-75
2021/12/07 09:12:37;;;;;;;0.70;0.70;;;1.40;99.90;;;;;;5098333;28;19920;-78
2021/12/07 09:15:04;;;;;;;0.70;0.70;;;1.50;99.90;;;;;;5098199;28;20040;-75
2021/12/07 09:17:30;;;;;;;0.90;0.90;;;1.50;99.90;;;;;;5095955;28;20051;-75
2021/12/07 09:19:55;;;;;;;0.60;0.60;;;1.60;99.90;;;;;;5097745;28;20040;-77
2021/12/07 09:22:21;;;;;;;0.70;0.70;;;1.60;99.90;;;;;;5098250;28;20188;-77
2021/12/07 09:24:47;;;;;;;0.95;0.90;;;1.60;99.90;;;;;;5097770;28;20044;-74
2021/12/07 09:27:13;;;;;;;1.00;1.00;;;1.70;99.90;;;;;;5097688;28;20043;-77
2021/12/07 09:29:38;;;;;;;0.68;0.68;;;1.80;99.90;;;;;;5096092;28;20046;-75
2021/12/07 09:32:04;;;;;;;0.70;0.70;;;1.80;99.90;;;;;;5096560;28;20434;-76
2021/12/07 09:34:31;;;;;;;1.60;1.50;;;1.80;99.90;;;;;;5097018;28;20051;-75
2021/12/07 09:37:00;;;;;;;0.70;0.70;;;1.80;99.90;;;;;;5097232;28;20058;-76
2021/12/07 09:39:26;;;;;;;0.60;0.60;;;2.00;99.90;;;;;;5097219;28;20127;-76
2021/12/07 09:41:52;;;;;;;1.13;1.13;;;1.90;99.90;;;;;;5097404;28;20127;-75
2021/12/07 09:44:17;;;;;;;0.97;0.90;;;2.00;99.90;;;;;;5097291;28;20048;-76
2021/12/07 09:46:44;;;;;;;1.90;1.80;;;2.00;99.90;;;;;;5097222;28;20050;-79
2021/12/07 09:49:11;;;;;;;0.70;0.70;;;2.00;99.90;;;;;;5096730;28;20089;-77
2021/12/07 09:51:38;;;;;;;0.63;0.63;;;2.00;99.90;;;;;;5096902;28;20054;-75
2021/12/07 09:54:08;;;;;;;0.70;0.70;;;2.10;99.90;;;;;;5097024;28;20048;-78
2021/12/07 09:56:34;;;;;;;0.70;0.70;;;2.10;99.90;;;;;;5096815;28;20047;-76
2021/12/07 09:59:00;;;;;;;0.60;0.60;;;2.20;99.90;;;;;;5096972;28;20079;-74
2021/12/07 10:01:27;;;;;;;0.60;0.60;;;2.30;99.90;;;;;;5096899;28;20079;-75
2021/12/07 10:03:53;;;;;;;0.70;0.70;;;2.40;99.90;;;;;;5095916;28;20052;-78
2021/12/07 10:06:20;;;;;;;0.80;0.80;;;2.50;99.90;;;;;;5095399;28;20116;-76
2021/12/07 10:08:47;;;;;;;0.60;0.60;;;2.60;99.90;;;;;;5096701;28;20051;-74
2021/12/07 10:11:13;;;;;;;;;;;2.70;99.90;;;;;;5097155;28;20495;-75
2021/12/07 10:13:41;;;;;;;0.60;0.60;;;2.70;99.90;;;;;;5096417;28;19920;-78
2021/12/07 10:16:10;;;;;;;0.90;0.90;;;2.70;99.90;;;;;;5096425;28;20112;-78
2021/12/07 10:18:37;;;;;;;0.60;0.60;;;2.80;99.90;;;;;;5096521;28;20052;-78
2021/12/07 10:21:27;;;;;;;0.60;0.60;;;2.90;99.90;;;;;;5095899;28;20044;-78
2021/12/07 10:24:02;;;;;;;0.70;0.70;;;3.00;99.90;;;;;;5095533;28;20080;-78
2021/12/07 10:26:48;;;;;;;0.60;0.60;;;3.20;99.90;;;;;;5096037;28;20540;-74
2021/12/07 10:29:20;;;;;;;1.13;0.75;;;3.20;99.90;;;;;;5096094;28;20043;-79
2021/12/07 10:31:54;;;;;;;0.60;0.60;;;3.30;99.90;;;;;;5096034;28;20497;-82
2021/12/07 10:34:28;;;;;;;0.60;0.60;;;3.30;99.90;;;;;;5079122;28;20051;-82
2021/12/07 10:37:02;;;;;;;0.95;0.90;;;3.40;99.90;;;;;;5096359;28;20391;-80
2021/12/07 10:39:37;;;;;;;0.88;0.88;;;3.40;99.90;;;;;;5096146;28;20051;-80
2021/12/07 10:42:08;;;;;;;0.60;0.60;;;3.40;99.90;;;;;;5096243;28;20040;-80
2021/12/07 10:44:39;;;;;;;0.70;0.70;;;3.40;99.90;;;;;;5094733;28;20032;-81
2021/12/07 10:47:07;;;;;;;0.60;0.60;;;3.40;99.90;;;;;;5096131;28;20094;-82
2021/12/07 10:49:43;;;;;;;0.70;0.70;;;3.40;99.90;;;;;;5095720;28;20080;-81
2021/12/07 10:52:22;;;;;;;0.52;0.52;;;3.40;99.90;;;;;;5095894;28;20055;-80
2021/12/07 10:55:15;;;;;;;1.00;0.93;;;3.50;99.90;;;;;;5095677;28;20126;-80
2021/12/07 10:57:46;;;;;;;0.50;0.50;;;3.50;99.90;;;;;;5095711;28;20121;-81
2021/12/07 11:00:11;;;;;;;0.70;0.70;;;3.50;99.90;;;;;;5094212;28;20067;-84
2021/12/07 11:02:40;;;;;;;0.80;0.80;;;3.50;99.90;;;;;;5095801;28;20479;-81
2021/12/07 11:05:10;;;;;;;0.98;0.98;;;4.70;99.90;;;;;;5094294;28;20074;-79
2021/12/07 11:07:37;;;;;;;0.70;0.70;;;3.50;99.90;;;;;;5095728;28;20108;-81
2021/12/07 11:10:16;;;;;;;0.70;0.70;;;3.60;99.90;;;;;;5095678;28;20052;-81
2021/12/07 11:13:09;;;;;;;0.98;0.90;;;3.60;99.90;;;;;;5094081;28;20089;-84
2021/12/07 11:15:47;;;;;;;0.60;0.60;;;3.60;99.90;;;;;;5095339;28;20051;-82
2021/12/07 11:18:14;;;;;;;1.60;1.25;;;3.70;99.90;;;;;;5095229;28;20048;-81
2021/12/07 11:20:40;;;;;;;;;;;3.70;99.90;;;;;;5095740;28;20127;-84
2021/12/07 11:23:16;;;;;;;0.93;0.93;;;3.80;99.90;;;;;;5094072;28;20050;-82
2021/12/07 11:31:26;;;;;;;0.60;0.60;;;4.00;99.90;;;;;;5095004;28;20052;-83
2021/12/07 11:34:14;;;;;;;0.50;0.50;;;4.00;99.90;;;;;;5094091;28;20040;-83
2021/12/07 11:36:46;;;;;;;0.60;0.60;;;4.00;99.90;;;;;;5094048;28;20052;-79
2021/12/07 11:39:21;;;;;;;0.60;0.60;;;4.00;99.90;;;;;;5094210;28;20036;-84
2021/12/07 11:41:51;;;;;;;0.70;0.70;;;4.10;99.90;;;;;;5093725;28;20048;-82
2021/12/07 11:44:19;;;;;;;1.42;1.33;;;4.00;99.90;;;;;;5093925;28;20044;-80
2021/12/07 11:46:49;;;;;;;8.38;4.53;;;4.00;99.90;;;;;;5096855;28;20127;-82
2021/12/07 11:49:20;;;;;;;1.45;1.35;;;3.90;99.90;;;;;;5093619;28;20083;-81
2021/12/07 11:51:49;;;;;;;0.60;0.60;;;4.10;99.90;;;;;;5095269;28;20052;-81
2021/12/07 11:54:16;;;;;;;0.93;0.93;;;3.80;99.90;;;;;;5094862;28;20044;-83
2021/12/07 11:56:43;;;;;;;1.33;1.23;;;3.90;99.90;;;;;;5093571;28;20036;-83
2021/12/07 11:59:09;;;;;;;1.77;1.67;;;4.00;99.90;;;;;;5094672;28;20047;-82
2021/12/07 12:01:38;;;;;;;0.70;0.70;;;4.20;99.90;;;;;;5094476;28;20647;-79
2021/12/07 12:04:04;;;;;;;0.98;0.88;;;4.50;99.90;;;;;;5094566;28;20048;-88
2021/12/07 12:06:30;;;;;;;0.77;0.77;;;4.30;99.90;;;;;;5094420;28;20040;-84
2021/12/07 12:08:57;;;;;;;0.60;0.60;;;4.30;99.90;;;;;;5094192;28;20097;-80
2021/12/07 12:11:42;;;;;;;;;;;4.20;99.90;;;;;;5093389;28;20055;-82
2021/12/07 12:14:13;;;;;;;0.80;0.80;;;3.90;99.90;;;;;;5093397;28;19931;-84
2021/12/07 12:17:05;;;;;;;0.60;0.60;;;4.30;99.90;;;;;;5094331;28;20085;-82
2021/12/07 12:19:49;;;;;;;0.60;0.60;;;4.30;99.90;;;;;;5093996;28;20527;-81
2021/12/07 12:22:26;;;;;;;0.70;0.70;;;4.30;99.90;;;;;;5094128;28;20567;-79
2021/12/07 12:24:59;;;;;;;0.60;0.60;;;4.40;99.90;;;;;;5087869;28;20052;-89
2021/12/07 12:27:28;;;;;;;2.15;0.82;;;4.50;99.90;;;;;;5079674;28;20036;-83
2021/12/07 12:29:55;;;;;;;0.80;0.80;;;4.60;99.90;;;;;;5089812;28;20381;-81
2021/12/07 12:32:35;;;;;;;1.25;1.15;;;4.60;99.90;;;;;;5093535;28;20574;-78
2021/12/07 12:35:03;;;;;;;0.60;0.60;;;4.60;99.90;;;;;;5075933;28;20044;-82
2021/12/07 12:37:31;;;;;;;0.65;0.65;;;4.60;99.90;;;;;;5094073;28;20123;-76
2021/12/07 12:40:07;;;;;;;0.60;0.60;;;4.60;99.90;;;;;;5093701;28;20036;-77
2021/12/07 12:42:38;;;;;;;0.60;0.60;;;4.60;99.90;;;;;;5093710;28;20097;-80
2021/12/07 12:45:10;;;;;;;0.60;0.60;;;4.50;99.90;;;;;;5093507;28;20047;-80
2021/12/07 12:47:39;;;;;;;1.20;1.08;;;4.50;99.90;;;;;;5093585;28;20519;-79
2021/12/07 12:50:19;;;;;;;0.77;0.77;;;4.50;99.90;;;;;;5093619;28;20122;-79
2021/12/07 12:52:52;;;;;;;0.70;0.70;;;4.50;99.90;;;;;;5093574;28;20552;-78
2021/12/07 12:55:27;;;;;;;1.45;1.25;;;4.50;99.90;;;;;;5093686;28;20043;-80
2021/12/07 12:57:53;;;;;;;0.70;0.70;;;4.50;99.90;;;;;;5093447;28;20073;-79
2021/12/07 13:00:19;;;;;;;0.60;0.60;;;4.50;99.90;;;;;;5093478;28;20047;-78
2021/12/07 13:02:53;;;;;;;1.10;0.80;;;4.50;99.90;;;;;;5093291;28;20552;-80
2021/12/07 13:05:33;;;;;;;0.60;0.60;;;4.50;99.90;;;;;;5093669;28;20040;-80
2021/12/07 13:08:25;;;;;;;0.60;0.60;;;4.40;99.90;;;;;;5093814;28;20100;-78
2021/12/07 13:11:01;;;;;;;0.80;0.80;;;4.40;99.90;;;;;;5091518;28;20055;-80
2021/12/07 13:13:33;;;;;;;1.15;1.15;;;4.40;99.90;;;;;;5092101;28;20504;-79
2021/12/07 13:16:13;;;;;;;1.30;1.20;;;4.30;99.90;;;;;;5093172;28;20071;-83
2021/12/07 13:18:43;;;;;;;0.60;0.60;;;4.40;99.90;;;;;;5093490;28;20095;-79
2021/12/07 13:21:22;;;;;;;0.57;0.57;;;4.40;99.90;;;;;;5093437;28;20487;-79
2021/12/07 13:24:07;;;;;;;0.60;0.60;;;4.40;99.90;;;;;;5093654;28;20051;-79
2021/12/07 13:26:38;;;;;;;1.15;0.80;;;4.40;99.90;;;;;;5093421;28;20047;-83
2021/12/07 13:29:16;;;;;;;0.60;0.60;;;4.40;99.90;;;;;;5093327;28;20089;-81
2021/12/07 13:31:45;;;;;;;0.75;0.75;;;4.40;99.90;;;;;;5093398;28;20546;-73
2021/12/07 13:34:13;;;;;;;0.63;0.63;;;4.50;99.90;;;;;;5093146;28;20048;-78
2021/12/07 13:36:42;;;;;;;0.90;0.90;;;4.50;99.90;;;;;;5093062;28;20051;-77
2021/12/07 13:39:10;;;;;;;1.38;1.27;;;4.50;99.90;;;;;;5092800;28;20059;-75
2021/12/07 13:42:03;;;;;;;0.70;0.70;;;4.40;99.90;;;;;;5093330;28;20059;-77
2021/12/07 13:44:36;;;;;;;0.70;0.70;;;4.40;99.90;;;;;;5091805;28;20040;-76
2021/12/07 13:47:06;;;;;;;0.90;0.90;;;4.30;99.90;;;;;;5093174;28;20044;-76
2021/12/07 13:49:33;;;;;;;3.25;0.95;;;4.70;99.90;;;;;;5093107;28;20048;-78
2021/12/07 13:51:59;;;;;;;0.70;0.70;;;4.30;99.90;;;;;;5092998;28;20480;-77
2021/12/07 13:54:25;;;;;;;0.60;0.60;;;3.50;99.90;;;;;;5093039;28;20126;-78
2021/12/07 13:56:53;;;;;;;0.68;0.68;;;4.30;99.90;;;;;;5094772;28;20123;-77
2021/12/07 13:59:26;;;;;;;1.25;1.17;;;4.20;99.90;;;;;;5096780;28;20046;-77
2021/12/07 14:01:55;;;;;;;0.60;0.60;;;4.20;99.90;;;;;;5096600;28;20075;-79
2021/12/07 14:04:24;;;;;;;0.50;0.50;;;4.20;99.90;;;;;;5096879;28;20047;-77
2021/12/07 14:06:50;;;;;;;0.60;0.60;;;4.50;99.90;;;;;;5095885;28;20127;-78
2021/12/07 14:09:17;;;;;;;0.60;0.60;;;4.10;99.90;;;;;;5096852;28;20089;-78
2021/12/07 14:11:44;;;;;;;0.60;0.60;;;4.10;99.90;;;;;;5096596;28;20040;-78
2021/12/07 14:14:16;;;;;;;0.60;0.60;;;4.00;99.90;;;;;;5096346;28;20083;-77
2021/12/07 14:16:44;;;;;;;0.68;0.68;;;4.10;99.90;;;;;;5096553;28;20060;-77
2021/12/07 14:19:11;;;;;;;1.05;1.05;;;4.00;99.90;;;;;;5096453;28;20047;-77
2021/12/07 14:21:37;;;;;;;0.70;0.70;;;4.00;99.90;;;;;;5096654;28;20430;-77
2021/12/07 14:24:06;;;;;;;0.60;0.60;;;4.00;99.90;;;;;;5095671;28;20044;-77
2021/12/07 14:26:36;;;;;;;0.63;0.63;;;4.00;99.90;;;;;;5096157;28;20048;-77
2021/12/07 14:29:10;;;;;;;1.00;0.98;;;3.90;99.90;;;;;;5096222;28;20451;-79